sensor_id;sensor_type;location;lat;lon;timestamp;P1;durP1;ratioP1;P2;durP2;ratioP2
59938;SDS011;45801;51.810;19.444;2023-11-19T00:01:07;21.00;;;12.90;;
59938;SDS011;45801;51.810;19.444;2023-11-19T00:03:54;22.40;;;12.70;;
59938;SDS011;45801;51.810;19.444;2023-11-19T00:06:20;26.70;;;16.90;;
59938;SDS011;45801;51.810;19.444;2023-11-19T00:08:47;25.70;;;16.40;;
59938;SDS011;45801;51.810;19.444;2023-11-19T00:11:14;24.10;;;14.60;;
59938;SDS011;45801;51.810;19.444;2023-11-19T00:13:42;23.90;;;14.00;;
59938;SDS011;45801;51.810;19.444;2023-11-19T00:16:09;21.20;;;14.20;;
59938;SDS011;45801;51.810;19.444;2023-11-19T00:18:36;23.20;;;13.30;;
59938;SDS011;45801;51.810;19.444;2023-11-19T00:21:02;22.60;;;14.00;;
59938;SDS011;45801;51.810;19.444;2023-11-19T00:23:29;26.00;;;15.30;;
59938;SDS011;45801;51.810;19.444;2023-11-19T00:25:56;26.00;;;15.30;;
59938;SDS011;45801;51.810;19.444;2023-11-19T00:28:24;22.70;;;14.30;;
59938;SDS011;45801;51.810;19.444;2023-11-19T00:30:51;25.00;;;14.70;;
59938;SDS011;45801;51.810;19.444;2023-11-19T00:33:17;26.40;;;16.50;;
59938;SDS011;45801;51.810;19.444;2023-11-19T00:35:44;28.70;;;18.90;;
59938;SDS011;45801;51.810;19.444;2023-11-19T00:38:11;27.80;;;17.80;;
59938;SDS011;45801;51.810;19.444;2023-11-19T00:40:38;30.70;;;18.30;;
59938;SDS011;45801;51.810;19.444;2023-11-19T00:43:04;31.40;;;17.20;;
59938;SDS011;45801;51.810;19.444;2023-11-19T00:45:31;25.70;;;16.90;;
59938;SDS011;45801;51.810;19.444;2023-11-19T00:47:57;29.80;;;17.00;;
59938;SDS011;45801;51.810;19.444;2023-11-19T00:50:25;26.00;;;14.90;;
59938;SDS011;45801;51.810;19.444;2023-11-19T00:52:53;26.00;;;15.40;;
59938;SDS011;45801;51.810;19.444;2023-11-19T00:55:20;24.70;;;14.10;;
59938;SDS011;45801;51.810;19.444;2023-11-19T00:57:47;24.60;;;13.80;;
59938;SDS011;45801;51.810;19.444;2023-11-19T01:00:14;20.70;;;12.90;;
59938;SDS011;45801;51.810;19.444;2023-11-19T01:02:50;23.00;;;13.20;;
59938;SDS011;45801;51.810;19.444;2023-11-19T01:05:16;23.00;;;13.20;;
59938;SDS011;45801;51.810;19.444;2023-11-19T01:07:47;22.30;;;13.70;;
59938;SDS011;45801;51.810;19.444;2023-11-19T01:10:14;21.30;;;12.30;;
59938;SDS011;45801;51.810;19.444;2023-11-19T01:12:42;24.60;;;13.00;;
59938;SDS011;45801;51.810;19.444;2023-11-19T01:15:09;23.10;;;14.00;;
59938;SDS011;45801;51.810;19.444;2023-11-19T01:17:39;22.00;;;14.10;;
59938;SDS011;45801;51.810;19.444;2023-11-19T01:20:06;23.20;;;14.20;;
59938;SDS011;45801;51.810;19.444;2023-11-19T01:22:33;24.40;;;13.70;;
59938;SDS011;45801;51.810;19.444;2023-11-19T01:25:00;27.00;;;16.30;;
59938;SDS011;45801;51.810;19.444;2023-11-19T01:27:27;25.30;;;16.50;;
59938;SDS011;45801;51.810;19.444;2023-11-19T01:29:53;25.00;;;14.60;;
59938;SDS011;45801;51.810;19.444;2023-11-19T01:32:21;25.60;;;15.50;;
59938;SDS011;45801;51.810;19.444;2023-11-19T01:34:48;24.90;;;15.00;;
59938;SDS011;45801;51.810;19.444;2023-11-19T01:37:15;24.10;;;15.50;;
59938;SDS011;45801;51.810;19.444;2023-11-19T01:39:44;27.60;;;16.70;;
59938;SDS011;45801;51.810;19.444;2023-11-19T01:42:11;25.50;;;17.20;;
59938;SDS011;45801;51.810;19.444;2023-11-19T01:44:38;28.80;;;18.00;;
59938;SDS011;45801;51.810;19.444;2023-11-19T01:47:05;29.60;;;17.80;;
59938;SDS011;45801;51.810;19.444;2023-11-19T01:49:32;27.60;;;18.80;;
59938;SDS011;45801;51.810;19.444;2023-11-19T01:51:59;28.80;;;18.40;;
59938;SDS011;45801;51.810;19.444;2023-11-19T01:54:26;30.70;;;19.10;;
59938;SDS011;45801;51.810;19.444;2023-11-19T01:56:56;28.80;;;18.80;;
59938;SDS011;45801;51.810;19.444;2023-11-19T01:59:23;29.10;;;18.60;;
59938;SDS011;45801;51.810;19.444;2023-11-19T02:01:54;29.00;;;19.30;;
59938;SDS011;45801;51.810;19.444;2023-11-19T02:04:21;28.80;;;18.60;;
59938;SDS011;45801;51.810;19.444;2023-11-19T02:06:49;28.00;;;17.50;;
59938;SDS011;45801;51.810;19.444;2023-11-19T02:09:20;29.60;;;19.70;;
59938;SDS011;45801;51.810;19.444;2023-11-19T02:11:47;28.60;;;16.90;;
59938;SDS011;45801;51.810;19.444;2023-11-19T02:14:18;26.70;;;16.80;;
59938;SDS011;45801;51.810;19.444;2023-11-19T02:16:48;27.20;;;17.60;;
59938;SDS011;45801;51.810;19.444;2023-11-19T02:19:18;29.30;;;17.70;;
59938;SDS011;45801;51.810;19.444;2023-11-19T02:21:46;28.40;;;19.10;;
59938;SDS011;45801;51.810;19.444;2023-11-19T02:24:14;26.00;;;16.50;;
59938;SDS011;45801;51.810;19.444;2023-11-19T02:31:43;25.80;;;16.30;;
59938;SDS011;45801;51.810;19.444;2023-11-19T02:34:10;25.30;;;15.40;;
59938;SDS011;45801;51.810;19.444;2023-11-19T02:36:39;20.90;;;13.00;;
59938;SDS011;45801;51.810;19.444;2023-11-19T02:39:08;24.60;;;14.30;;
59938;SDS011;45801;51.810;19.444;2023-11-19T02:41:38;23.70;;;13.90;;
59938;SDS011;45801;51.810;19.444;2023-11-19T02:44:06;20.10;;;11.70;;
59938;SDS011;45801;51.810;19.444;2023-11-19T02:46:33;16.50;;;10.10;;
59938;SDS011;45801;51.810;19.444;2023-11-19T02:49:00;16.30;;;10.20;;
59938;SDS011;45801;51.810;19.444;2023-11-19T02:51:26;17.70;;;10.30;;
59938;SDS011;45801;51.810;19.444;2023-11-19T02:53:54;15.40;;;8.80;;
59938;SDS011;45801;51.810;19.444;2023-11-19T02:56:20;16.90;;;10.10;;
59938;SDS011;45801;51.810;19.444;2023-11-19T02:58:52;16.00;;;9.90;;
59938;SDS011;45801;51.810;19.444;2023-11-19T03:01:25;16.00;;;9.40;;
59938;SDS011;45801;51.810;19.444;2023-11-19T03:03:57;15.50;;;9.20;;
59938;SDS011;45801;51.810;19.444;2023-11-19T03:06:24;16.40;;;8.70;;
59938;SDS011;45801;51.810;19.444;2023-11-19T03:08:51;16.40;;;9.80;;
59938;SDS011;45801;51.810;19.444;2023-11-19T03:11:18;16.10;;;9.30;;
59938;SDS011;45801;51.810;19.444;2023-11-19T03:13:44;14.50;;;8.90;;
59938;SDS011;45801;51.810;19.444;2023-11-19T03:16:11;14.30;;;9.90;;
59938;SDS011;45801;51.810;19.444;2023-11-19T03:18:38;16.10;;;9.40;;
59938;SDS011;45801;51.810;19.444;2023-11-19T03:21:06;16.30;;;9.90;;
59938;SDS011;45801;51.810;19.444;2023-11-19T03:23:34;15.50;;;9.30;;
59938;SDS011;45801;51.810;19.444;2023-11-19T03:26:01;15.10;;;8.90;;
59938;SDS011;45801;51.810;19.444;2023-11-19T03:28:32;16.80;;;10.40;;
59938;SDS011;45801;51.810;19.444;2023-11-19T03:30:58;16.50;;;9.70;;
59938;SDS011;45801;51.810;19.444;2023-11-19T03:33:25;17.60;;;9.90;;
59938;SDS011;45801;51.810;19.444;2023-11-19T03:35:54;16.20;;;9.10;;
59938;SDS011;45801;51.810;19.444;2023-11-19T03:38:23;17.20;;;10.60;;
59938;SDS011;45801;51.810;19.444;2023-11-19T03:40:51;18.40;;;10.20;;
59938;SDS011;45801;51.810;19.444;2023-11-19T03:43:17;18.10;;;10.90;;
59938;SDS011;45801;51.810;19.444;2023-11-19T03:45:45;18.90;;;11.10;;
59938;SDS011;45801;51.810;19.444;2023-11-19T03:48:14;17.50;;;10.40;;
59938;SDS011;45801;51.810;19.444;2023-11-19T03:50:43;19.60;;;11.30;;
59938;SDS011;45801;51.810;19.444;2023-11-19T03:53:11;20.90;;;12.80;;
59938;SDS011;45801;51.810;19.444;2023-11-19T03:55:38;23.00;;;13.10;;
59938;SDS011;45801;51.810;19.444;2023-11-19T03:58:04;22.20;;;13.00;;
59938;SDS011;45801;51.810;19.444;2023-11-19T04:00:31;21.90;;;13.90;;
59938;SDS011;45801;51.810;19.444;2023-11-19T04:02:59;20.60;;;11.80;;
59938;SDS011;45801;51.810;19.444;2023-11-19T04:05:27;22.70;;;13.40;;
59938;SDS011;45801;51.810;19.444;2023-11-19T04:07:54;25.90;;;15.70;;
59938;SDS011;45801;51.810;19.444;2023-11-19T04:10:20;24.70;;;14.30;;
59938;SDS011;45801;51.810;19.444;2023-11-19T04:12:48;23.70;;;14.80;;
59938;SDS011;45801;51.810;19.444;2023-11-19T04:15:15;25.10;;;15.20;;
59938;SDS011;45801;51.810;19.444;2023-11-19T04:17:42;25.70;;;14.20;;
59938;SDS011;45801;51.810;19.444;2023-11-19T04:20:09;26.00;;;15.70;;
59938;SDS011;45801;51.810;19.444;2023-11-19T04:22:39;23.80;;;14.20;;
59938;SDS011;45801;51.810;19.444;2023-11-19T04:25:06;23.70;;;14.70;;
59938;SDS011;45801;51.810;19.444;2023-11-19T04:27:33;24.80;;;14.60;;
59938;SDS011;45801;51.810;19.444;2023-11-19T04:30:03;22.80;;;14.60;;
59938;SDS011;45801;51.810;19.444;2023-11-19T04:32:31;23.40;;;14.30;;
59938;SDS011;45801;51.810;19.444;2023-11-19T04:34:58;23.70;;;13.50;;
59938;SDS011;45801;51.810;19.444;2023-11-19T04:37:25;22.70;;;13.20;;
59938;SDS011;45801;51.810;19.444;2023-11-19T04:39:51;23.60;;;13.70;;
59938;SDS011;45801;51.810;19.444;2023-11-19T04:42:18;22.30;;;13.00;;
59938;SDS011;45801;51.810;19.444;2023-11-19T04:44:46;21.10;;;13.10;;
59938;SDS011;45801;51.810;19.444;2023-11-19T04:47:12;22.00;;;13.70;;
59938;SDS011;45801;51.810;19.444;2023-11-19T04:49:40;23.70;;;14.50;;
59938;SDS011;45801;51.810;19.444;2023-11-19T04:52:09;22.70;;;13.30;;
59938;SDS011;45801;51.810;19.444;2023-11-19T04:54:35;21.50;;;12.60;;
59938;SDS011;45801;51.810;19.444;2023-11-19T04:57:10;23.80;;;13.80;;
59938;SDS011;45801;51.810;19.444;2023-11-19T04:59:39;20.50;;;13.10;;
59938;SDS011;45801;51.810;19.444;2023-11-19T05:02:08;23.90;;;13.60;;
59938;SDS011;45801;51.810;19.444;2023-11-19T05:04:35;24.60;;;15.30;;
59938;SDS011;45801;51.810;19.444;2023-11-19T05:07:01;20.80;;;13.40;;
59938;SDS011;45801;51.810;19.444;2023-11-19T05:09:28;24.40;;;14.60;;
59938;SDS011;45801;51.810;19.444;2023-11-19T05:12:01;25.40;;;14.80;;
59938;SDS011;45801;51.810;19.444;2023-11-19T05:14:30;24.80;;;14.90;;
59938;SDS011;45801;51.810;19.444;2023-11-19T05:16:56;23.40;;;13.50;;
59938;SDS011;45801;51.810;19.444;2023-11-19T05:19:23;24.60;;;14.60;;
59938;SDS011;45801;51.810;19.444;2023-11-19T05:21:49;21.70;;;13.30;;
59938;SDS011;45801;51.810;19.444;2023-11-19T05:24:18;21.50;;;14.00;;
59938;SDS011;45801;51.810;19.444;2023-11-19T05:26:45;23.90;;;14.60;;
59938;SDS011;45801;51.810;19.444;2023-11-19T05:29:13;20.90;;;12.90;;
59938;SDS011;45801;51.810;19.444;2023-11-19T05:31:40;22.30;;;14.40;;
59938;SDS011;45801;51.810;19.444;2023-11-19T05:34:06;21.70;;;13.40;;
59938;SDS011;45801;51.810;19.444;2023-11-19T05:36:33;23.60;;;13.30;;
59938;SDS011;45801;51.810;19.444;2023-11-19T05:39:01;22.20;;;13.40;;
59938;SDS011;45801;51.810;19.444;2023-11-19T05:41:29;24.80;;;13.10;;
59938;SDS011;45801;51.810;19.444;2023-11-19T05:43:55;21.90;;;14.50;;
59938;SDS011;45801;51.810;19.444;2023-11-19T05:46:22;21.60;;;11.90;;
59938;SDS011;45801;51.810;19.444;2023-11-19T05:48:49;21.70;;;13.30;;
59938;SDS011;45801;51.810;19.444;2023-11-19T05:51:15;22.40;;;12.80;;
59938;SDS011;45801;51.810;19.444;2023-11-19T05:53:42;22.30;;;13.40;;
59938;SDS011;45801;51.810;19.444;2023-11-19T05:56:09;22.50;;;13.00;;
59938;SDS011;45801;51.810;19.444;2023-11-19T05:58:36;22.50;;;13.70;;
59938;SDS011;45801;51.810;19.444;2023-11-19T06:01:04;21.70;;;13.90;;
59938;SDS011;45801;51.810;19.444;2023-11-19T06:03:33;23.00;;;13.70;;
59938;SDS011;45801;51.810;19.444;2023-11-19T06:06:00;21.60;;;13.50;;
59938;SDS011;45801;51.810;19.444;2023-11-19T06:08:27;23.70;;;14.40;;
59938;SDS011;45801;51.810;19.444;2023-11-19T06:10:54;24.30;;;13.00;;
59938;SDS011;45801;51.810;19.444;2023-11-19T06:13:20;19.70;;;12.40;;
59938;SDS011;45801;51.810;19.444;2023-11-19T06:15:48;22.00;;;14.50;;
59938;SDS011;45801;51.810;19.444;2023-11-19T06:18:14;22.20;;;12.60;;
59938;SDS011;45801;51.810;19.444;2023-11-19T06:20:41;20.50;;;12.20;;
59938;SDS011;45801;51.810;19.444;2023-11-19T06:23:10;20.70;;;12.70;;
59938;SDS011;45801;51.810;19.444;2023-11-19T06:25:36;20.20;;;12.80;;
59938;SDS011;45801;51.810;19.444;2023-11-19T06:28:03;20.90;;;12.70;;
59938;SDS011;45801;51.810;19.444;2023-11-19T06:30:30;21.60;;;12.90;;
59938;SDS011;45801;51.810;19.444;2023-11-19T06:32:58;20.90;;;12.50;;
59938;SDS011;45801;51.810;19.444;2023-11-19T06:35:26;20.50;;;12.10;;
59938;SDS011;45801;51.810;19.444;2023-11-19T06:37:53;22.00;;;12.60;;
59938;SDS011;45801;51.810;19.444;2023-11-19T06:40:19;21.60;;;12.50;;
59938;SDS011;45801;51.810;19.444;2023-11-19T06:42:46;20.50;;;12.00;;
59938;SDS011;45801;51.810;19.444;2023-11-19T06:45:13;21.10;;;12.60;;
59938;SDS011;45801;51.810;19.444;2023-11-19T06:47:41;20.40;;;11.60;;
59938;SDS011;45801;51.810;19.444;2023-11-19T06:50:08;19.90;;;12.30;;
59938;SDS011;45801;51.810;19.444;2023-11-19T06:52:35;20.10;;;11.30;;
59938;SDS011;45801;51.810;19.444;2023-11-19T06:55:03;22.50;;;12.90;;
59938;SDS011;45801;51.810;19.444;2023-11-19T06:57:31;19.80;;;12.40;;
59938;SDS011;45801;51.810;19.444;2023-11-19T06:59:58;20.90;;;11.90;;
59938;SDS011;45801;51.810;19.444;2023-11-19T07:02:25;22.00;;;13.30;;
59938;SDS011;45801;51.810;19.444;2023-11-19T07:04:52;21.30;;;12.40;;
59938;SDS011;45801;51.810;19.444;2023-11-19T07:07:18;23.00;;;14.40;;
59938;SDS011;45801;51.810;19.444;2023-11-19T07:09:46;23.20;;;13.40;;
59938;SDS011;45801;51.810;19.444;2023-11-19T07:12:14;21.40;;;12.30;;
59938;SDS011;45801;51.810;19.444;2023-11-19T07:14:41;21.50;;;13.00;;
59938;SDS011;45801;51.810;19.444;2023-11-19T07:17:08;23.10;;;13.70;;
59938;SDS011;45801;51.810;19.444;2023-11-19T07:19:36;21.80;;;13.10;;
59938;SDS011;45801;51.810;19.444;2023-11-19T07:22:04;21.40;;;13.30;;
59938;SDS011;45801;51.810;19.444;2023-11-19T07:24:32;23.90;;;14.20;;
59938;SDS011;45801;51.810;19.444;2023-11-19T07:26:59;21.30;;;13.00;;
59938;SDS011;45801;51.810;19.444;2023-11-19T07:29:26;20.20;;;12.60;;
59938;SDS011;45801;51.810;19.444;2023-11-19T07:31:53;22.20;;;13.60;;
59938;SDS011;45801;51.810;19.444;2023-11-19T07:34:19;23.10;;;14.30;;
59938;SDS011;45801;51.810;19.444;2023-11-19T07:36:47;24.40;;;14.40;;
59938;SDS011;45801;51.810;19.444;2023-11-19T07:39:14;22.90;;;14.00;;
59938;SDS011;45801;51.810;19.444;2023-11-19T07:41:40;23.70;;;14.10;;
59938;SDS011;45801;51.810;19.444;2023-11-19T07:44:07;23.40;;;14.50;;
59938;SDS011;45801;51.810;19.444;2023-11-19T07:46:34;23.60;;;15.50;;
59938;SDS011;45801;51.810;19.444;2023-11-19T07:49:01;23.30;;;13.70;;
59938;SDS011;45801;51.810;19.444;2023-11-19T07:51:29;23.80;;;14.60;;
59938;SDS011;45801;51.810;19.444;2023-11-19T07:53:55;23.00;;;14.60;;
59938;SDS011;45801;51.810;19.444;2023-11-19T07:56:22;21.80;;;12.90;;
59938;SDS011;45801;51.810;19.444;2023-11-19T07:58:49;22.10;;;14.20;;
59938;SDS011;45801;51.810;19.444;2023-11-19T08:01:16;22.60;;;13.40;;
59938;SDS011;45801;51.810;19.444;2023-11-19T08:03:42;24.50;;;14.80;;
59938;SDS011;45801;51.810;19.444;2023-11-19T08:06:09;25.40;;;14.30;;
59938;SDS011;45801;51.810;19.444;2023-11-19T08:08:36;22.60;;;13.90;;
59938;SDS011;45801;51.810;19.444;2023-11-19T08:11:04;21.30;;;13.70;;
59938;SDS011;45801;51.810;19.444;2023-11-19T08:13:31;24.00;;;14.20;;
59938;SDS011;45801;51.810;19.444;2023-11-19T08:15:59;25.40;;;15.20;;
59938;SDS011;45801;51.810;19.444;2023-11-19T08:18:25;23.10;;;14.00;;
59938;SDS011;45801;51.810;19.444;2023-11-19T08:20:52;23.30;;;14.90;;
59938;SDS011;45801;51.810;19.444;2023-11-19T08:23:19;25.70;;;15.30;;
59938;SDS011;45801;51.810;19.444;2023-11-19T08:25:47;27.20;;;15.10;;
59938;SDS011;45801;51.810;19.444;2023-11-19T08:28:13;23.00;;;12.40;;
59938;SDS011;45801;51.810;19.444;2023-11-19T08:30:40;27.80;;;15.10;;
59938;SDS011;45801;51.810;19.444;2023-11-19T08:33:08;24.30;;;14.80;;
59938;SDS011;45801;51.810;19.444;2023-11-19T08:35:35;27.10;;;15.50;;
59938;SDS011;45801;51.810;19.444;2023-11-19T08:38:02;25.80;;;15.90;;
59938;SDS011;45801;51.810;19.444;2023-11-19T08:40:29;23.40;;;13.60;;
59938;SDS011;45801;51.810;19.444;2023-11-19T08:42:56;26.30;;;15.60;;
59938;SDS011;45801;51.810;19.444;2023-11-19T08:45:23;23.90;;;14.30;;
59938;SDS011;45801;51.810;19.444;2023-11-19T08:47:49;24.00;;;14.80;;
59938;SDS011;45801;51.810;19.444;2023-11-19T08:50:16;26.50;;;15.80;;
59938;SDS011;45801;51.810;19.444;2023-11-19T08:52:43;23.80;;;14.00;;
59938;SDS011;45801;51.810;19.444;2023-11-19T08:55:10;23.90;;;13.80;;
59938;SDS011;45801;51.810;19.444;2023-11-19T08:57:39;25.60;;;15.30;;
59938;SDS011;45801;51.810;19.444;2023-11-19T09:00:06;25.60;;;14.40;;
59938;SDS011;45801;51.810;19.444;2023-11-19T09:02:36;26.40;;;15.00;;
59938;SDS011;45801;51.810;19.444;2023-11-19T09:05:04;26.10;;;15.40;;
59938;SDS011;45801;51.810;19.444;2023-11-19T09:07:33;31.70;;;15.80;;
59938;SDS011;45801;51.810;19.444;2023-11-19T09:10:00;25.00;;;15.10;;
59938;SDS011;45801;51.810;19.444;2023-11-19T09:12:27;28.40;;;16.80;;
59938;SDS011;45801;51.810;19.444;2023-11-19T09:14:53;25.60;;;14.80;;
59938;SDS011;45801;51.810;19.444;2023-11-19T09:17:20;27.20;;;16.10;;
59938;SDS011;45801;51.810;19.444;2023-11-19T09:19:47;25.30;;;14.70;;
59938;SDS011;45801;51.810;19.444;2023-11-19T09:22:14;27.30;;;15.00;;
59938;SDS011;45801;51.810;19.444;2023-11-19T09:24:41;24.20;;;14.50;;
59938;SDS011;45801;51.810;19.444;2023-11-19T09:27:07;25.30;;;14.90;;
59938;SDS011;45801;51.810;19.444;2023-11-19T09:29:34;24.40;;;14.30;;
59938;SDS011;45801;51.810;19.444;2023-11-19T09:32:01;23.60;;;13.80;;
59938;SDS011;45801;51.810;19.444;2023-11-19T09:34:27;26.40;;;14.30;;
59938;SDS011;45801;51.810;19.444;2023-11-19T09:36:55;28.00;;;17.00;;
59938;SDS011;45801;51.810;19.444;2023-11-19T09:39:22;26.50;;;15.80;;
59938;SDS011;45801;51.810;19.444;2023-11-19T09:41:49;27.40;;;15.80;;
59938;SDS011;45801;51.810;19.444;2023-11-19T09:44:15;25.20;;;15.10;;
59938;SDS011;45801;51.810;19.444;2023-11-19T09:46:44;23.70;;;13.90;;
59938;SDS011;45801;51.810;19.444;2023-11-19T09:49:12;26.80;;;15.40;;
59938;SDS011;45801;51.810;19.444;2023-11-19T09:51:39;27.40;;;15.00;;
59938;SDS011;45801;51.810;19.444;2023-11-19T09:54:07;26.80;;;15.60;;
59938;SDS011;45801;51.810;19.444;2023-11-19T09:56:33;26.10;;;15.10;;
59938;SDS011;45801;51.810;19.444;2023-11-19T09:59:04;27.70;;;15.40;;
59938;SDS011;45801;51.810;19.444;2023-11-19T10:01:31;23.60;;;13.70;;
59938;SDS011;45801;51.810;19.444;2023-11-19T10:04:00;22.90;;;14.70;;
59938;SDS011;45801;51.810;19.444;2023-11-19T10:06:28;24.10;;;14.40;;
59938;SDS011;45801;51.810;19.444;2023-11-19T10:08:56;26.50;;;15.40;;
59938;SDS011;45801;51.810;19.444;2023-11-19T10:11:22;25.40;;;15.20;;
59938;SDS011;45801;51.810;19.444;2023-11-19T10:13:51;29.40;;;15.50;;
59938;SDS011;45801;51.810;19.444;2023-11-19T10:16:19;27.90;;;15.10;;
59938;SDS011;45801;51.810;19.444;2023-11-19T10:18:47;24.40;;;12.90;;
59938;SDS011;45801;51.810;19.444;2023-11-19T10:21:20;26.80;;;14.80;;
59938;SDS011;45801;51.810;19.444;2023-11-19T10:23:47;24.00;;;13.60;;
59938;SDS011;45801;51.810;19.444;2023-11-19T10:26:18;26.00;;;14.40;;
59938;SDS011;45801;51.810;19.444;2023-11-19T10:28:47;25.20;;;14.60;;
59938;SDS011;45801;51.810;19.444;2023-11-19T10:31:14;26.50;;;14.40;;
59938;SDS011;45801;51.810;19.444;2023-11-19T10:33:42;25.00;;;14.20;;
59938;SDS011;45801;51.810;19.444;2023-11-19T10:36:11;24.10;;;13.50;;
59938;SDS011;45801;51.810;19.444;2023-11-19T10:38:39;23.80;;;12.40;;
59938;SDS011;45801;51.810;19.444;2023-11-19T10:41:06;26.20;;;14.80;;
59938;SDS011;45801;51.810;19.444;2023-11-19T10:43:43;24.80;;;13.90;;
59938;SDS011;45801;51.810;19.444;2023-11-19T10:46:14;25.40;;;14.30;;
59938;SDS011;45801;51.810;19.444;2023-11-19T10:48:41;29.60;;;14.50;;
59938;SDS011;45801;51.810;19.444;2023-11-19T10:51:10;26.10;;;13.80;;
59938;SDS011;45801;51.810;19.444;2023-11-19T10:53:41;25.10;;;14.60;;
59938;SDS011;45801;51.810;19.444;2023-11-19T10:56:11;24.40;;;13.60;;
59938;SDS011;45801;51.810;19.444;2023-11-19T10:58:44;26.70;;;15.90;;
59938;SDS011;45801;51.810;19.444;2023-11-19T11:01:19;24.60;;;14.20;;
59938;SDS011;45801;51.810;19.444;2023-11-19T11:03:50;25.40;;;13.50;;
59938;SDS011;45801;51.810;19.444;2023-11-19T11:06:18;24.20;;;13.50;;
59938;SDS011;45801;51.810;19.444;2023-11-19T11:08:46;23.30;;;14.60;;
59938;SDS011;45801;51.810;19.444;2023-11-19T11:11:15;26.70;;;14.10;;
59938;SDS011;45801;51.810;19.444;2023-11-19T11:13:49;24.60;;;14.20;;
59938;SDS011;45801;51.810;19.444;2023-11-19T11:16:18;24.90;;;14.70;;
59938;SDS011;45801;51.810;19.444;2023-11-19T11:18:48;22.00;;;12.90;;
59938;SDS011;45801;51.810;19.444;2023-11-19T11:21:20;24.00;;;14.50;;
59938;SDS011;45801;51.810;19.444;2023-11-19T11:29:26;22.00;;;12.60;;
59938;SDS011;45801;51.810;19.444;2023-11-19T11:32:02;22.10;;;13.80;;
59938;SDS011;45801;51.810;19.444;2023-11-19T11:37:37;20.50;;;11.30;;
59938;SDS011;45801;51.810;19.444;2023-11-19T11:40:17;22.00;;;13.10;;
59938;SDS011;45801;51.810;19.444;2023-11-19T11:42:44;23.00;;;13.50;;
59938;SDS011;45801;51.810;19.444;2023-11-19T11:45:12;21.40;;;11.80;;
59938;SDS011;45801;51.810;19.444;2023-11-19T11:55:26;24.40;;;14.00;;
59938;SDS011;45801;51.810;19.444;2023-11-19T11:57:57;23.60;;;13.90;;
59938;SDS011;45801;51.810;19.444;2023-11-19T12:00:27;22.70;;;13.70;;
59938;SDS011;45801;51.810;19.444;2023-11-19T12:02:57;25.30;;;14.80;;
59938;SDS011;45801;51.810;19.444;2023-11-19T12:05:27;23.50;;;13.70;;
59938;SDS011;45801;51.810;19.444;2023-11-19T12:08:01;22.80;;;14.30;;
59938;SDS011;45801;51.810;19.444;2023-11-19T12:10:52;25.60;;;14.50;;
59938;SDS011;45801;51.810;19.444;2023-11-19T12:13:19;27.20;;;15.90;;
59938;SDS011;45801;51.810;19.444;2023-11-19T12:18:26;24.40;;;14.60;;
59938;SDS011;45801;51.810;19.444;2023-11-19T12:20:57;23.90;;;14.50;;
59938;SDS011;45801;51.810;19.444;2023-11-19T12:23:27;25.10;;;15.50;;
59938;SDS011;45801;51.810;19.444;2023-11-19T12:25:55;25.30;;;16.30;;
59938;SDS011;45801;51.810;19.444;2023-11-19T12:28:23;25.70;;;15.50;;
59938;SDS011;45801;51.810;19.444;2023-11-19T12:30:53;25.10;;;15.90;;
59938;SDS011;45801;51.810;19.444;2023-11-19T12:33:20;25.20;;;15.20;;
59938;SDS011;45801;51.810;19.444;2023-11-19T12:35:47;23.90;;;15.30;;
59938;SDS011;45801;51.810;19.444;2023-11-19T12:38:20;25.40;;;15.90;;
59938;SDS011;45801;51.810;19.444;2023-11-19T12:41:08;25.50;;;15.70;;
59938;SDS011;45801;51.810;19.444;2023-11-19T12:43:39;25.00;;;15.70;;
59938;SDS011;45801;51.810;19.444;2023-11-19T12:46:22;26.00;;;16.30;;
59938;SDS011;45801;51.810;19.444;2023-11-19T12:51:17;23.90;;;14.50;;
59938;SDS011;45801;51.810;19.444;2023-11-19T12:53:51;23.30;;;15.00;;
59938;SDS011;45801;51.810;19.444;2023-11-19T12:56:24;24.30;;;14.50;;
59938;SDS011;45801;51.810;19.444;2023-11-19T12:58:51;23.10;;;14.80;;
59938;SDS011;45801;51.810;19.444;2023-11-19T13:01:18;22.50;;;14.80;;
59938;SDS011;45801;51.810;19.444;2023-11-19T13:03:47;19.80;;;12.80;;
59938;SDS011;45801;51.810;19.444;2023-11-19T13:06:15;21.80;;;13.60;;
59938;SDS011;45801;51.810;19.444;2023-11-19T13:08:43;22.60;;;13.90;;
59938;SDS011;45801;51.810;19.444;2023-11-19T13:11:12;20.90;;;12.40;;
59938;SDS011;45801;51.810;19.444;2023-11-19T13:13:56;21.50;;;12.30;;
59938;SDS011;45801;51.810;19.444;2023-11-19T13:16:26;20.20;;;11.00;;
59938;SDS011;45801;51.810;19.444;2023-11-19T13:18:53;18.10;;;11.30;;
59938;SDS011;45801;51.810;19.444;2023-11-19T13:21:21;16.60;;;10.10;;
59938;SDS011;45801;51.810;19.444;2023-11-19T13:23:48;17.10;;;10.50;;
59938;SDS011;45801;51.810;19.444;2023-11-19T13:26:14;20.30;;;11.30;;
59938;SDS011;45801;51.810;19.444;2023-11-19T13:28:41;17.40;;;10.50;;
59938;SDS011;45801;51.810;19.444;2023-11-19T13:31:08;16.40;;;9.60;;
59938;SDS011;45801;51.810;19.444;2023-11-19T13:33:34;16.60;;;10.80;;
59938;SDS011;45801;51.810;19.444;2023-11-19T13:36:02;17.00;;;10.60;;
59938;SDS011;45801;51.810;19.444;2023-11-19T13:38:33;16.30;;;9.70;;
59938;SDS011;45801;51.810;19.444;2023-11-19T13:41:02;16.20;;;10.20;;
59938;SDS011;45801;51.810;19.444;2023-11-19T13:43:30;18.00;;;10.60;;
59938;SDS011;45801;51.810;19.444;2023-11-19T13:45:58;17.90;;;11.50;;
59938;SDS011;45801;51.810;19.444;2023-11-19T13:48:25;16.60;;;9.50;;
59938;SDS011;45801;51.810;19.444;2023-11-19T13:50:52;18.30;;;9.90;;
59938;SDS011;45801;51.810;19.444;2023-11-19T13:53:20;16.10;;;10.40;;
59938;SDS011;45801;51.810;19.444;2023-11-19T13:55:46;17.20;;;10.00;;
59938;SDS011;45801;51.810;19.444;2023-11-19T13:58:14;18.00;;;10.90;;
59938;SDS011;45801;51.810;19.444;2023-11-19T14:00:41;18.90;;;11.50;;
59938;SDS011;45801;51.810;19.444;2023-11-19T14:03:08;17.80;;;10.90;;
59938;SDS011;45801;51.810;19.444;2023-11-19T14:05:39;19.50;;;12.00;;
59938;SDS011;45801;51.810;19.444;2023-11-19T14:08:07;19.00;;;11.30;;
59938;SDS011;45801;51.810;19.444;2023-11-19T14:10:40;20.10;;;11.80;;
59938;SDS011;45801;51.810;19.444;2023-11-19T14:13:07;18.70;;;11.40;;
59938;SDS011;45801;51.810;19.444;2023-11-19T14:15:34;16.50;;;10.10;;
59938;SDS011;45801;51.810;19.444;2023-11-19T14:18:02;20.50;;;11.60;;
59938;SDS011;45801;51.810;19.444;2023-11-19T14:20:29;18.80;;;11.10;;
59938;SDS011;45801;51.810;19.444;2023-11-19T14:22:56;21.90;;;12.00;;
59938;SDS011;45801;51.810;19.444;2023-11-19T14:25:22;19.30;;;12.40;;
59938;SDS011;45801;51.810;19.444;2023-11-19T14:27:50;19.80;;;11.80;;
59938;SDS011;45801;51.810;19.444;2023-11-19T14:30:16;20.50;;;12.90;;
59938;SDS011;45801;51.810;19.444;2023-11-19T14:32:43;19.20;;;12.20;;
59938;SDS011;45801;51.810;19.444;2023-11-19T14:35:12;19.70;;;12.20;;
59938;SDS011;45801;51.810;19.444;2023-11-19T14:37:39;18.10;;;12.50;;
59938;SDS011;45801;51.810;19.444;2023-11-19T14:40:06;20.80;;;12.60;;